Time;durP1;ratioP1;P1;durP2;ratioP2;P2;SDS_P1;SDS_P2;PMS_P1;PMS_P2;Temp;Humidity;BMP_temperature;BMP_pressure;BME280_temperature;BME280_humidity;BME280_pressure;Samples;Min_cycle;Max_cycle;Signal;HPM_P1;HPM_P2
2023/11/02 00:01:49;;;;;;;3.13;1.63;;;10.40;99.90;;;;;;5033117;28;20492;-61
2023/11/02 00:04:16;;;;;;;2.30;1.40;;;10.40;99.90;;;;;;5033503;28;20820;-61
2023/11/02 00:06:46;;;;;;;2.30;1.30;;;10.30;99.90;;;;;;5033404;28;20437;-61
2023/11/02 00:09:37;;;;;;;2.13;1.27;;;10.30;99.90;;;;;;5033439;28;20436;-62
2023/11/02 00:12:07;;;;;;;3.67;1.43;;;10.30;99.90;;;;;;5033264;28;20543;-61
2023/11/02 00:14:52;;;;;;;4.63;1.70;;;10.20;99.90;;;;;;5033426;28;20869;-60
2023/11/02 00:17:58;;;;;;;3.23;1.27;;;10.20;99.90;;;;;;5033204;28;20838;-61
2023/11/02 00:20:33;;;;;;;4.10;1.13;;;10.20;99.90;;;;;;5033632;28;20421;-61
2023/11/02 00:23:02;;;;;;;1.77;1.30;;;10.20;99.90;;;;;;5033207;28;20460;-61
2023/11/02 00:25:50;;;;;;;4.37;1.37;;;10.10;99.90;;;;;;5033277;28;20433;-61
2023/11/02 00:28:17;;;;;;;4.87;1.93;;;10.10;99.90;;;;;;5035481;28;20903;-61
2023/11/02 00:30:47;;;;;;;3.80;1.13;;;10.10;99.90;;;;;;5037230;28;20441;-60
2023/11/02 00:33:15;;;;;;;1.95;1.10;;;10.00;99.90;;;;;;5037000;28;20940;-61
2023/11/02 00:35:46;;;;;;;3.70;1.30;;;10.00;99.90;;;;;;5037253;28;20204;-60
2023/11/02 00:38:19;;;;;;;2.70;1.50;;;10.00;99.90;;;;;;5038954;28;20672;-62
2023/11/02 00:40:46;;;;;;;2.53;1.10;;;10.00;99.90;;;;;;5038313;28;20421;-62
2023/11/02 00:43:13;;;;;;;3.03;1.60;;;9.90;99.90;;;;;;5038124;28;20203;-61
2023/11/02 00:45:42;;;;;;;4.43;1.27;;;9.90;99.90;;;;;;5037531;28;20210;-61
2023/11/02 00:48:15;;;;;;;2.50;1.25;;;9.90;99.90;;;;;;5037326;28;20668;-60
2023/11/02 00:51:14;;;;;;;1.63;1.10;;;9.90;99.90;;;;;;5037305;28;20690;-60
2023/11/02 00:53:45;;;;;;;3.28;1.48;;;9.80;99.90;;;;;;5037071;28;20197;-61
2023/11/02 00:56:13;;;;;;;2.03;1.48;;;9.80;99.90;;;;;;5036894;28;20241;-61
2023/11/02 00:58:46;;;;;;;1.95;1.27;;;9.80;99.90;;;;;;5036892;28;20226;-61
2023/11/02 01:01:14;;;;;;;2.22;1.10;;;9.80;99.90;;;;;;5037255;28;20226;-60
2023/11/02 01:03:47;;;;;;;3.10;1.50;;;9.70;99.90;;;;;;5037011;28;20566;-61
2023/11/02 01:06:17;;;;;;;2.00;1.30;;;9.70;99.90;;;;;;5037303;28;20422;-61
2023/11/02 01:08:48;;;;;;;1.50;1.25;;;9.70;99.90;;;;;;5037409;28;20487;-60
2023/11/02 01:11:15;;;;;;;2.28;1.50;;;9.70;99.90;;;;;;5037093;28;20234;-61
2023/11/02 01:13:42;;;;;;;3.78;1.20;;;9.70;99.90;;;;;;5036547;28;20198;-61
2023/11/02 01:16:10;;;;;;;2.55;1.13;;;9.70;99.90;;;;;;5036117;28;20317;-62
2023/11/02 01:18:40;;;;;;;4.25;1.60;;;9.70;99.90;;;;;;5036354;28;20222;-61
2023/11/02 01:21:08;;;;;;;3.55;1.30;;;9.80;99.90;;;;;;5036095;28;20711;-61
2023/11/02 01:23:35;;;;;;;1.92;1.35;;;9.70;99.90;;;;;;5036046;28;20691;-61
2023/11/02 01:26:04;;;;;;;4.18;1.42;;;9.70;99.90;;;;;;5036302;28;20198;-59
2023/11/02 01:28:53;;;;;;;2.47;1.35;;;9.70;99.90;;;;;;5036179;28;20202;-61
2023/11/02 01:31:21;;;;;;;2.33;1.60;;;9.70;99.90;;;;;;5036078;28;20233;-60
2023/11/02 01:34:02;;;;;;;3.53;1.45;;;9.60;99.90;;;;;;5036317;28;20206;-61
2023/11/02 01:36:37;;;;;;;2.28;1.52;;;9.60;99.90;;;;;;5036021;28;20198;-61
2023/11/02 01:39:24;;;;;;;5.40;1.50;;;9.60;99.90;;;;;;5035542;28;20182;-60
2023/11/02 01:42:03;;;;;;;2.88;1.50;;;9.60;99.90;;;;;;5035536;28;20313;-61
2023/11/02 01:44:39;;;;;;;1.90;1.30;;;9.60;99.90;;;;;;5036329;28;20190;-61
2023/11/02 01:47:13;;;;;;;2.47;1.50;;;9.50;99.90;;;;;;5035709;28;20178;-61
2023/11/02 01:49:48;;;;;;;2.10;1.55;;;9.50;99.90;;;;;;5036098;28;20196;-61
2023/11/02 01:52:33;;;;;;;6.53;1.55;;;9.50;99.90;;;;;;5035958;28;20221;-61
2023/11/02 01:55:03;;;;;;;4.18;1.50;;;9.50;99.90;;;;;;5036000;28;20236;-61
2023/11/02 01:57:49;;;;;;;3.03;1.63;;;9.50;99.90;;;;;;5036045;28;20233;-61
2023/11/02 02:00:17;;;;;;;2.10;1.20;;;9.50;99.90;;;;;;5035870;28;20300;-61
2023/11/02 02:02:51;;;;;;;7.07;2.13;;;9.50;99.90;;;;;;5035367;28;20720;-61
2023/11/02 02:05:27;;;;;;;5.43;1.63;;;9.50;99.90;;;;;;5035562;28;20192;-60
2023/11/02 02:08:03;;;;;;;2.13;1.45;;;9.50;99.90;;;;;;5036033;28;20240;-60
2023/11/02 02:10:46;;;;;;;5.13;1.30;;;9.50;99.90;;;;;;5035132;28;20649;-60
2023/11/02 02:13:25;;;;;;;1.65;1.38;;;9.50;99.90;;;;;;5035389;28;20198;-62
2023/11/02 02:16:02;;;;;;;3.15;1.35;;;9.50;99.90;;;;;;5035333;28;20186;-61
2023/11/02 02:18:35;;;;;;;2.30;1.40;;;9.60;99.90;;;;;;5035554;28;20409;-61
2023/11/02 02:21:09;;;;;;;1.80;1.15;;;9.60;99.90;;;;;;5034848;28;20232;-61
2023/11/02 02:23:46;;;;;;;1.38;1.27;;;9.70;99.90;;;;;;5035155;28;20663;-61
2023/11/02 02:26:32;;;;;;;2.38;1.30;;;9.70;99.90;;;;;;5035316;28;20257;-61
2023/11/02 02:29:25;;;;;;;1.98;1.40;;;9.70;99.90;;;;;;5035100;28;20182;-61
2023/11/02 02:32:12;;;;;;;5.68;2.20;;;9.70;99.90;;;;;;5018256;28;20605;-61
2023/11/02 02:35:07;;;;;;;1.50;1.40;;;9.60;99.90;;;;;;5035512;28;20197;-61
2023/11/02 02:37:37;;;;;;;2.63;1.30;;;9.60;99.90;;;;;;5017296;28;20229;-61
2023/11/02 02:40:07;;;;;;;2.60;1.58;;;9.60;99.90;;;;;;5035387;28;20198;-61
2023/11/02 02:42:36;;;;;;;2.50;1.60;;;9.50;99.90;;;;;;5034940;28;20596;-60
2023/11/02 02:45:07;;;;;;;3.53;1.45;;;9.50;99.90;;;;;;5035104;28;20214;-60
2023/11/02 02:47:36;;;;;;;2.55;1.38;;;9.50;99.90;;;;;;5035254;28;20213;-61
2023/11/02 02:50:07;;;;;;;2.17;1.40;;;9.40;99.90;;;;;;5034900;28;20203;-61
2023/11/02 02:52:36;;;;;;;1.85;1.60;;;9.30;99.90;;;;;;5034083;28;20226;-60
2023/11/02 02:55:04;;;;;;;3.30;1.52;;;9.30;99.90;;;;;;5034779;28;20691;-61
2023/11/02 02:57:34;;;;;;;5.43;1.67;;;9.30;99.90;;;;;;5035239;28;20711;-61
2023/11/02 03:00:02;;;;;;;3.03;1.48;;;9.30;99.90;;;;;;5036444;28;20206;-61
2023/11/02 03:02:32;;;;;;;4.40;1.33;;;9.30;99.90;;;;;;5048275;22;20239;-62
2023/11/02 03:05:00;;;;;;;1.52;1.42;;;9.20;99.90;;;;;;5015153;28;20203;-62
2023/11/02 03:07:31;;;;;;;2.55;1.55;;;9.20;99.90;;;;;;5015323;28;20565;-62
2023/11/02 03:10:01;;;;;;;2.10;1.58;;;9.10;99.90;;;;;;5015093;28;20191;-61
2023/11/02 03:12:31;;;;;;;3.67;1.85;;;9.10;99.90;;;;;;5014718;28;20237;-62
2023/11/02 03:15:01;;;;;;;2.70;1.65;;;9.10;99.90;;;;;;5014554;28;20206;-62
2023/11/02 03:17:44;;;;;;;2.33;1.50;;;9.10;99.90;;;;;;5014134;28;20664;-62
2023/11/02 03:20:14;;;;;;;3.17;1.50;;;9.00;99.90;;;;;;5014541;28;20188;-62
2023/11/02 03:22:42;;;;;;;2.38;1.60;;;8.90;99.90;;;;;;5014432;28;20223;-62
2023/11/02 03:25:14;;;;;;;1.40;1.30;;;8.90;99.90;;;;;;5014623;28;20249;-62
2023/11/02 03:27:54;;;;;;;1.70;1.60;;;9.00;99.90;;;;;;5014300;28;20195;-62
2023/11/02 03:30:28;;;;;;;2.60;1.90;;;8.90;99.90;;;;;;5014314;28;20191;-62
2023/11/02 03:33:10;;;;;;;4.90;1.55;;;8.90;99.90;;;;;;5014872;28;20234;-62
2023/11/02 03:35:47;;;;;;;2.33;1.25;;;8.90;99.90;;;;;;5015387;28;20198;-62
2023/11/02 03:38:27;;;;;;;2.60;1.65;;;8.90;99.90;;;;;;5014698;28;20209;-62
2023/11/02 03:41:12;;;;;;;2.42;1.58;;;9.00;99.90;;;;;;5014692;28;20191;-61
2023/11/02 03:43:47;;;;;;;3.85;1.70;;;9.00;99.90;;;;;;5014460;28;20199;-61
2023/11/02 03:46:26;;;;;;;2.25;1.40;;;9.00;99.90;;;;;;5014450;28;20186;-61
2023/11/02 03:49:04;;;;;;;2.17;1.38;;;9.00;99.90;;;;;;5014210;28;20191;-63
2023/11/02 03:51:46;;;;;;;3.03;1.25;;;9.10;99.90;;;;;;5013934;28;20731;-62
2023/11/02 03:54:35;;;;;;;7.65;1.83;;;9.10;99.90;;;;;;5015035;28;20191;-62
2023/11/02 03:57:12;;;;;;;6.43;1.35;;;9.10;99.90;;;;;;5014551;28;20195;-62
2023/11/02 03:59:50;;;;;;;3.08;1.85;;;9.20;99.90;;;;;;5013749;28;20234;-62
2023/11/02 04:02:27;;;;;;;5.47;2.00;;;9.20;99.90;;;;;;5013202;28;20230;-62
2023/11/02 04:05:02;;;;;;;1.80;1.48;;;9.30;99.90;;;;;;5013742;28;20206;-62
2023/11/02 04:07:32;;;;;;;2.35;1.70;;;9.30;99.90;;;;;;5014824;28;20187;-62
2023/11/02 04:12:33;;;;;;;1.90;1.70;;;9.30;99.90;;;;;;5092332;28;20627;-62
2023/11/02 04:15:01;;;;;;;3.50;1.70;;;9.30;99.90;;;;;;5093872;28;20211;-62
2023/11/02 04:17:28;;;;;;;5.10;1.25;;;9.30;99.90;;;;;;5093779;28;20262;-61
2023/11/02 04:19:55;;;;;;;1.20;1.00;;;9.30;99.90;;;;;;5098516;28;20211;-62
2023/11/02 04:22:21;;;;;;;6.57;1.73;;;9.40;99.90;;;;;;5099040;28;20216;-62
2023/11/02 04:24:48;;;;;;;2.42;1.20;;;9.40;99.90;;;;;;5103270;28;20204;-62
2023/11/02 04:27:15;;;;;;;2.33;1.10;;;9.40;99.90;;;;;;5105444;28;20216;-63
2023/11/02 04:29:43;;;;;;;6.00;1.80;;;9.40;99.90;;;;;;5106130;28;20687;-62
2023/11/02 04:32:10;;;;;;;2.55;1.20;;;9.40;99.90;;;;;;5104604;28;20224;-62
2023/11/02 04:34:36;;;;;;;1.95;1.55;;;9.40;99.90;;;;;;5104187;28;20196;-63
2023/11/02 04:37:12;;;;;;;1.45;1.30;;;9.40;99.90;;;;;;5104749;28;20662;-62
2023/11/02 04:39:38;;;;;;;3.58;1.50;;;9.40;99.90;;;;;;5091778;28;20188;-62
2023/11/02 04:42:05;;;;;;;1.88;1.45;;;9.40;99.90;;;;;;5091335;28;20216;-63
2023/11/02 04:44:32;;;;;;;3.45;1.80;;;9.40;99.90;;;;;;5091649;28;20201;-63
2023/11/02 04:47:00;;;;;;;3.45;1.35;;;9.40;99.90;;;;;;5091082;28;20571;-63
2023/11/02 04:49:27;;;;;;;3.92;1.38;;;9.40;99.90;;;;;;5091698;28;20197;-62
2023/11/02 04:51:54;;;;;;;2.80;1.50;;;9.40;99.90;;;;;;5090879;28;20220;-62
2023/11/02 04:54:25;;;;;;;1.65;1.15;;;9.40;99.90;;;;;;5091225;28;20196;-62
2023/11/02 04:56:51;;;;;;;4.35;1.50;;;9.40;99.90;;;;;;5090801;28;20201;-63
2023/11/02 04:59:19;;;;;;;4.13;2.50;;;9.40;99.90;;;;;;5091094;28;20201;-63
2023/11/02 05:01:45;;;;;;;6.15;1.60;;;9.30;99.90;;;;;;5091386;28;20266;-62
2023/11/02 05:04:13;;;;;;;3.55;1.27;;;9.30;99.90;;;;;;5091374;28;20586;-63
2023/11/02 05:06:40;;;;;;;6.75;1.52;;;9.30;99.90;;;;;;5090774;28;20200;-62
2023/11/02 05:09:07;;;;;;;1.88;1.50;;;9.40;99.90;;;;;;5090944;28;20205;-62
2023/11/02 05:11:35;;;;;;;2.83;1.60;;;9.40;99.90;;;;;;5090490;28;20228;-63
2023/11/02 05:14:02;;;;;;;2.80;1.48;;;9.40;99.90;;;;;;5090976;28;20235;-63
2023/11/02 05:16:29;;;;;;;3.70;2.13;;;9.40;99.90;;;;;;5091472;28;20257;-61
2023/11/02 05:18:55;;;;;;;3.47;1.63;;;9.50;99.90;;;;;;5091003;28;20307;-62
2023/11/02 05:21:23;;;;;;;1.98;1.45;;;9.50;99.90;;;;;;5090977;28;20203;-63
2023/11/02 05:23:50;;;;;;;2.53;1.07;;;9.50;99.90;;;;;;5076998;28;20576;-62
2023/11/02 05:26:17;;;;;;;3.37;1.50;;;9.60;99.90;;;;;;5077200;28;20451;-61
2023/11/02 05:28:44;;;;;;;6.20;1.42;;;9.60;99.90;;;;;;5079345;28;20440;-62
2023/11/02 05:31:11;;;;;;;1.87;1.30;;;9.70;99.90;;;;;;5084662;28;20217;-62
2023/11/02 05:33:37;;;;;;;1.73;1.30;;;9.70;99.90;;;;;;5082638;28;20440;-63
2023/11/02 05:36:06;;;;;;;1.33;0.82;;;9.70;99.90;;;;;;5078116;28;20447;-63
2023/11/02 05:38:34;;;;;;;2.57;1.17;;;9.80;99.90;;;;;;5077462;28;20201;-63
2023/11/02 05:41:01;;;;;;;3.90;1.13;;;9.80;99.90;;;;;;5077100;28;20442;-62
2023/11/02 05:43:27;;;;;;;2.07;1.20;;;9.90;99.90;;;;;;5076820;28;20459;-63
2023/11/02 05:45:54;;;;;;;3.58;1.30;;;9.90;99.90;;;;;;5076176;28;20443;-62
2023/11/02 05:48:21;;;;;;;1.60;1.20;;;9.90;99.90;;;;;;5076907;28;20201;-61
2023/11/02 05:50:48;;;;;;;3.90;1.13;;;10.00;99.90;;;;;;5076378;28;20235;-62
2023/11/02 05:53:15;;;;;;;5.23;1.27;;;10.00;99.90;;;;;;5076279;28;20463;-63
2023/11/02 05:55:43;;;;;;;2.78;1.08;;;10.10;99.90;;;;;;5076652;28;20443;-62
2023/11/02 05:58:10;;;;;;;2.50;1.00;;;10.10;99.90;;;;;;5077204;28;20205;-63
2023/11/02 06:00:37;;;;;;;1.30;0.90;;;10.10;99.90;;;;;;5077239;28;20450;-62
2023/11/02 06:03:04;;;;;;;6.37;1.30;;;10.10;99.90;;;;;;5076002;28;20459;-63
2023/11/02 06:05:31;;;;;;;3.13;1.27;;;10.20;99.90;;;;;;5077692;28;20487;-63
2023/11/02 06:07:58;;;;;;;5.80;1.60;;;10.20;99.90;;;;;;5078078;28;20979;-62
2023/11/02 06:10:24;;;;;;;2.07;1.20;;;10.30;99.90;;;;;;5076473;28;20462;-62
2023/11/02 06:12:52;;;;;;;2.67;1.10;;;10.40;99.90;;;;;;5076168;28;20544;-62
2023/11/02 06:15:19;;;;;;;4.20;1.57;;;10.40;99.90;;;;;;5080900;28;20447;-63
2023/11/02 06:17:46;;;;;;;5.03;1.30;;;10.50;99.90;;;;;;5076207;28;20443;-62
2023/11/02 06:20:13;;;;;;;3.00;1.10;;;10.50;99.90;;;;;;5077093;28;20440;-62
2023/11/02 06:22:40;;;;;;;1.67;1.57;;;10.60;99.90;;;;;;5076420;28;20467;-61
2023/11/02 06:25:08;;;;;;;2.93;1.13;;;10.60;99.90;;;;;;5076677;28;20446;-62
2023/11/02 06:27:35;;;;;;;1.60;1.33;;;10.70;99.90;;;;;;5076926;28;20442;-62
2023/11/02 06:30:03;;;;;;;2.77;2.50;;;10.70;99.90;;;;;;5076274;28;20493;-63
2023/11/02 06:32:30;;;;;;;2.00;1.03;;;10.70;99.90;;;;;;5076445;28;20487;-62
2023/11/02 06:34:56;;;;;;;3.47;1.10;;;10.70;99.90;;;;;;5074890;28;20440;-63
2023/11/02 06:37:23;;;;;;;1.40;0.93;;;10.70;99.90;;;;;;5075488;28;20440;-62
2023/11/02 06:39:50;;;;;;;4.60;1.40;;;10.70;99.90;;;;;;5075780;28;20447;-62
2023/11/02 06:42:17;;;;;;;4.37;1.37;;;10.70;99.90;;;;;;5076675;28;20832;-61
2023/11/02 06:44:44;;;;;;;4.37;1.60;;;10.70;99.90;;;;;;5075840;28;20905;-63
2023/11/02 06:47:12;;;;;;;2.40;0.87;;;10.70;99.90;;;;;;5079583;28;20472;-62
2023/11/02 06:49:39;;;;;;;1.80;1.00;;;10.70;99.90;;;;;;5076937;28;20443;-64
2023/11/02 06:52:06;;;;;;;1.60;0.87;;;10.70;99.90;;;;;;5080096;28;20487;-62
2023/11/02 06:54:33;;;;;;;4.20;1.13;;;10.80;99.90;;;;;;5075567;28;20809;-62
2023/11/02 06:57:00;;;;;;;1.97;1.10;;;10.80;99.90;;;;;;5075734;28;20454;-62
2023/11/02 06:59:27;;;;;;;3.10;1.40;;;10.80;99.90;;;;;;5074894;28;20447;-62
2023/11/02 07:01:54;;;;;;;1.43;1.10;;;10.90;99.90;;;;;;5074330;28;20976;-63
2023/11/02 07:04:22;;;;;;;2.50;1.23;;;10.90;99.90;;;;;;5074388;28;20448;-62
2023/11/02 07:06:49;;;;;;;3.20;1.30;;;10.90;99.90;;;;;;5075264;28;20443;-63
2023/11/02 07:09:16;;;;;;;2.40;1.10;;;11.00;99.90;;;;;;5077493;28;20439;-62
2023/11/02 07:11:43;;;;;;;1.43;0.80;;;11.00;99.90;;;;;;5078797;28;20491;-62
2023/11/02 07:14:10;;;;;;;1.77;0.90;;;11.10;99.90;;;;;;5076510;28;20999;-63
2023/11/02 07:16:37;;;;;;;2.90;1.40;;;11.20;99.90;;;;;;5079073;28;20786;-61
2023/11/02 07:19:04;;;;;;;1.93;1.07;;;11.20;99.90;;;;;;5076504;28;20944;-62
2023/11/02 07:21:33;;;;;;;2.30;1.20;;;11.30;99.90;;;;;;5075927;28;20471;-62
2023/11/02 07:24:02;;;;;;;2.70;1.10;;;11.40;99.90;;;;;;5075625;28;20459;-62
2023/11/02 07:26:28;;;;;;;2.70;1.10;;;11.40;99.90;;;;;;5075689;28;20470;-62
2023/11/02 07:28:57;;;;;;;1.80;1.10;;;11.50;99.90;;;;;;5075977;28;20446;-61
2023/11/02 07:31:23;;;;;;;2.20;0.97;;;11.50;99.90;;;;;;5075109;28;20471;-62
2023/11/02 07:33:50;;;;;;;1.97;1.10;;;11.60;99.90;;;;;;5075568;28;20530;-61
2023/11/02 07:36:18;;;;;;;4.00;1.53;;;11.60;99.90;;;;;;5075351;28;20554;-63
2023/11/02 07:38:46;;;;;;;2.53;0.83;;;11.60;99.90;;;;;;5076294;28;20531;-62
2023/11/02 07:41:14;;;;;;;1.77;1.10;;;11.60;99.90;;;;;;5075973;28;20448;-61
2023/11/02 07:43:41;;;;;;;1.30;0.90;;;11.70;99.90;;;;;;5074328;28;20443;-62
2023/11/02 07:46:08;;;;;;;7.13;1.17;;;11.70;99.90;;;;;;5076355;28;20439;-62
2023/11/02 07:48:35;;;;;;;2.43;1.20;;;11.70;99.90;;;;;;5075604;28;20458;-61
2023/11/02 07:51:04;;;;;;;2.33;0.97;;;11.80;99.90;;;;;;5074461;28;20446;-62
2023/11/02 07:53:31;;;;;;;2.30;1.53;;;11.80;99.90;;;;;;5074127;28;20443;-62
2023/11/02 07:55:59;;;;;;;1.63;0.80;;;11.80;99.90;;;;;;5078475;28;20443;-62
2023/11/02 07:58:26;;;;;;;1.70;1.13;;;11.80;99.90;;;;;;5079928;28;20463;-61
2023/11/02 08:00:53;;;;;;;5.13;1.00;;;11.90;99.90;;;;;;5080876;28;20451;-62
2023/11/02 08:03:21;;;;;;;5.83;1.30;;;11.90;99.90;;;;;;5082694;28;20521;-63
2023/11/02 08:05:47;;;;;;;1.17;1.00;;;11.90;99.90;;;;;;5084104;28;20479;-61
2023/11/02 08:08:14;;;;;;;1.17;0.93;;;11.90;99.90;;;;;;5083502;28;20960;-63
2023/11/02 08:10:41;;;;;;;0.90;0.70;;;11.90;99.90;;;;;;5084045;28;20455;-62
2023/11/02 08:13:09;;;;;;;1.47;0.90;;;11.90;99.90;;;;;;5083790;28;20487;-61
2023/11/02 08:15:36;;;;;;;2.97;1.37;;;12.00;99.90;;;;;;5074541;28;20443;-61
2023/11/02 08:18:03;;;;;;;2.60;0.97;;;12.00;99.90;;;;;;5073975;28;20435;-62
2023/11/02 08:20:29;;;;;;;2.07;0.90;;;12.00;99.90;;;;;;5074742;28;20455;-62
2023/11/02 08:22:56;;;;;;;1.13;1.00;;;12.00;99.90;;;;;;5074534;28;20455;-62
2023/11/02 08:25:23;;;;;;;2.00;0.90;;;12.00;99.90;;;;;;5074369;28;20450;-62
2023/11/02 08:27:56;;;;;;;1.63;0.80;;;12.00;99.90;;;;;;5076212;28;20451;-62
2023/11/02 08:30:25;;;;;;;1.30;0.70;;;12.10;99.90;;;;;;5074151;28;20432;-63
2023/11/02 08:32:52;;;;;;;2.63;1.33;;;12.10;99.90;;;;;;5074144;28;20494;-63
2023/11/02 08:35:20;;;;;;;3.93;1.50;;;12.10;99.90;;;;;;5074260;28;20443;-63
2023/11/02 08:37:48;;;;;;;5.73;1.40;;;12.10;99.90;;;;;;5073805;28;20492;-62
2023/11/02 08:40:15;;;;;;;2.80;0.97;;;12.20;99.90;;;;;;5074266;28;20446;-62
2023/11/02 08:42:42;;;;;;;1.47;0.90;;;12.20;99.90;;;;;;5075616;28;20485;-62
2023/11/02 08:45:10;;;;;;;3.07;0.93;;;12.30;99.90;;;;;;5074555;28;20443;-62
2023/11/02 08:47:38;;;;;;;1.17;0.80;;;12.30;99.90;;;;;;5073878;28;20451;-63
2023/11/02 08:50:06;;;;;;;2.20;0.97;;;12.30;99.90;;;;;;5073452;28;20954;-61
2023/11/02 08:52:34;;;;;;;1.90;0.97;;;12.40;99.90;;;;;;5074312;28;20479;-62
2023/11/02 08:55:01;;;;;;;1.70;1.10;;;12.40;99.90;;;;;;5073895;28;20450;-63
2023/11/02 08:57:28;;;;;;;2.20;1.13;;;12.40;99.90;;;;;;5075176;28;20443;-62
2023/11/02 08:59:55;;;;;;;1.73;0.90;;;12.40;99.90;;;;;;5079028;28;20514;-62
2023/11/02 09:02:21;;;;;;;2.70;0.83;;;12.40;99.90;;;;;;5079235;28;20822;-62
2023/11/02 09:04:49;;;;;;;2.87;2.33;;;12.40;99.90;;;;;;5079495;28;20435;-62
2023/11/02 09:07:16;;;;;;;3.00;1.10;;;12.40;99.90;;;;;;5080823;28;20450;-63
2023/11/02 09:09:43;;;;;;;2.27;0.90;;;12.40;99.90;;;;;;5081151;28;20463;-62
2023/11/02 09:12:11;;;;;;;2.73;1.13;;;12.40;99.90;;;;;;5079622;28;20495;-62
2023/11/02 09:14:37;;;;;;;1.90;1.00;;;12.40;99.90;;;;;;5080165;28;20439;-62
2023/11/02 09:17:04;;;;;;;1.47;1.10;;;12.50;99.90;;;;;;5080664;28;20450;-62
2023/11/02 09:19:31;;;;;;;3.53;0.97;;;12.50;99.90;;;;;;5080355;28;20447;-61
2023/11/02 09:22:00;;;;;;;2.93;1.43;;;12.50;99.90;;;;;;5082903;28;20459;-62
2023/11/02 09:24:26;;;;;;;1.50;0.97;;;12.50;99.90;;;;;;5084480;28;20450;-62
2023/11/02 09:26:53;;;;;;;2.20;1.10;;;12.50;99.90;;;;;;5084341;28;20434;-62
2023/11/02 09:29:20;;;;;;;1.93;0.83;;;12.50;99.90;;;;;;5079648;28;20450;-62
2023/11/02 09:31:47;;;;;;;1.43;0.80;;;12.50;99.90;;;;;;5078845;28;20537;-62
2023/11/02 09:34:15;;;;;;;5.60;1.03;;;12.60;99.90;;;;;;5080443;28;20956;-62
2023/11/02 09:36:43;;;;;;;1.97;1.00;;;12.60;99.90;;;;;;5079414;28;20443;-62
2023/11/02 09:39:11;;;;;;;1.60;1.20;;;12.60;99.90;;;;;;5077543;28;20450;-63
2023/11/02 09:41:40;;;;;;;3.63;1.27;;;12.70;99.90;;;;;;5077270;28;20834;-62
2023/11/02 09:44:08;;;;;;;1.53;1.00;;;12.70;99.90;;;;;;5078413;28;20458;-63
2023/11/02 09:46:35;;;;;;;1.47;1.00;;;12.70;99.90;;;;;;5077297;28;20447;-61
2023/11/02 09:49:02;;;;;;;1.50;1.00;;;12.80;99.90;;;;;;5076759;28;20448;-62
2023/11/02 09:51:29;;;;;;;1.20;1.10;;;12.80;99.90;;;;;;5077194;28;20463;-62
2023/11/02 09:53:58;;;;;;;1.33;0.80;;;12.80;99.90;;;;;;5077271;28;20475;-62
2023/11/02 09:56:28;;;;;;;3.00;1.00;;;12.80;99.90;;;;;;5077052;28;21010;-61
2023/11/02 09:58:56;;;;;;;1.30;0.80;;;12.80;99.90;;;;;;5077403;28;20439;-63
2023/11/02 10:01:23;;;;;;;1.67;0.80;;;12.80;99.90;;;;;;5077484;28;20474;-62
2023/11/02 10:03:50;;;;;;;2.40;1.10;;;12.80;99.90;;;;;;5076689;28;20889;-62
2023/11/02 10:06:17;;;;;;;1.30;1.20;;;12.90;99.90;;;;;;5076490;28;20435;-62
2023/11/02 10:08:44;;;;;;;1.30;0.70;;;13.00;99.90;;;;;;5076265;28;20521;-62
2023/11/02 10:11:12;;;;;;;2.17;1.30;;;13.00;99.90;;;;;;5075621;28;20455;-63
2023/11/02 10:13:40;;;;;;;1.80;0.87;;;13.10;99.90;;;;;;5076387;28;20988;-62
2023/11/02 10:16:07;;;;;;;1.30;1.03;;;13.10;99.90;;;;;;5076451;28;20444;-63
2023/11/02 10:18:34;;;;;;;0.90;0.80;;;13.20;99.90;;;;;;5076594;28;20443;-62
2023/11/02 10:21:05;;;;;;;1.07;0.70;;;13.20;99.90;;;;;;5076970;28;20457;-62
2023/11/02 10:23:47;;;;;;;1.13;0.80;;;13.20;99.90;;;;;;5075906;28;20456;-61
2023/11/02 10:26:15;;;;;;;2.30;1.00;;;13.30;99.90;;;;;;5076632;28;20474;-63
2023/11/02 10:28:44;;;;;;;1.00;0.80;;;13.40;99.90;;;;;;5077228;28;20850;-61
2023/11/02 10:31:10;;;;;;;2.07;1.30;;;13.40;99.50;;;;;;5079276;28;20446;-61
2023/11/02 10:33:37;;;;;;;3.50;1.40;;;13.50;99.30;;;;;;5080544;28;20483;-63
2023/11/02 10:36:06;;;;;;;3.67;0.93;;;13.60;99.00;;;;;;5078888;28;20447;-64
2023/11/02 10:38:33;;;;;;;1.67;0.87;;;13.80;98.70;;;;;;5079454;28;20439;-62
2023/11/02 10:41:01;;;;;;;1.80;1.00;;;13.90;98.30;;;;;;5078194;28;20444;-61
2023/11/02 10:43:30;;;;;;;1.23;0.80;;;13.90;97.80;;;;;;5082452;28;20471;-59
2023/11/02 10:45:59;;;;;;;1.37;1.23;;;13.90;97.40;;;;;;5080675;28;20444;-62
2023/11/02 10:48:29;;;;;;;1.17;0.90;;;13.80;97.50;;;;;;5077864;28;20444;-61
2023/11/02 10:50:57;;;;;;;2.97;1.20;;;13.70;97.90;;;;;;5076673;28;20443;-62
2023/11/02 10:53:35;;;;;;;1.77;1.03;;;13.60;98.30;;;;;;5076809;28;20872;-62
2023/11/02 10:56:07;;;;;;;1.57;1.00;;;13.50;98.50;;;;;;5075735;28;20529;-61
2023/11/02 10:58:35;;;;;;;2.17;1.50;;;13.40;98.80;;;;;;5076216;28;20420;-61
2023/11/02 11:01:05;;;;;;;3.23;1.37;;;13.40;99.00;;;;;;5076229;28;20917;-62
2023/11/02 11:03:32;;;;;;;1.90;1.20;;;13.40;99.00;;;;;;5076876;28;20783;-62
2023/11/02 11:05:59;;;;;;;2.87;1.17;;;13.30;99.00;;;;;;5077849;28;20439;-62
2023/11/02 11:08:27;;;;;;;1.10;0.80;;;13.30;99.00;;;;;;5077157;28;20823;-62
2023/11/02 11:10:55;;;;;;;1.37;0.97;;;13.40;98.80;;;;;;5076308;28;20458;-62
2023/11/02 11:13:22;;;;;;;4.03;1.50;;;13.40;98.50;;;;;;5076842;28;20486;-62
2023/11/02 11:15:51;;;;;;;1.90;0.93;;;13.40;98.20;;;;;;5075529;28;20519;-62
2023/11/02 11:18:19;;;;;;;1.20;1.10;;;13.40;97.80;;;;;;5076240;28;20506;-61
2023/11/02 11:20:46;;;;;;;1.67;1.30;;;13.50;97.40;;;;;;5074757;28;20435;-62
2023/11/02 11:23:15;;;;;;;1.10;0.90;;;13.60;97.20;;;;;;5075623;28;20827;-62
2023/11/02 11:25:57;;;;;;;1.20;0.93;;;13.60;96.80;;;;;;5075250;28;20497;-63
2023/11/02 11:28:30;;;;;;;2.40;0.80;;;13.70;96.40;;;;;;5075960;28;20442;-62
2023/11/02 11:30:58;;;;;;;1.70;1.30;;;13.80;96.40;;;;;;5079898;28;20458;-61
2023/11/02 11:33:51;;;;;;;2.77;1.70;;;13.90;95.90;;;;;;5082733;28;20585;-63
2023/11/02 11:36:23;;;;;;;2.37;1.10;;;14.10;95.40;;;;;;5080840;28;20454;-62
2023/11/02 11:38:50;;;;;;;1.87;1.27;;;14.20;95.00;;;;;;5082590;28;20435;-62
2023/11/02 11:41:42;;;;;;;1.50;1.40;;;14.30;95.00;;;;;;5084091;28;20443;-63
2023/11/02 11:44:17;;;;;;;3.00;1.20;;;14.50;94.20;;;;;;5084641;28;20450;-63
2023/11/02 11:46:45;;;;;;;1.73;1.27;;;14.60;93.70;;;;;;5078038;28;20438;-62
2023/11/02 11:49:51;;;;;;;1.77;1.40;;;14.70;93.30;;;;;;5077955;28;20435;-63
2023/11/02 11:52:27;;;;;;;2.43;1.00;;;14.80;92.80;;;;;;5076736;28;20826;-65
2023/11/02 11:54:55;;;;;;;1.60;1.17;;;14.80;92.30;;;;;;5076105;28;20522;-63
2023/11/02 11:57:54;;;;;;;1.90;0.90;;;14.80;92.10;;;;;;5074960;28;20902;-62
2023/11/02 12:00:22;;;;;;;1.10;1.00;;;14.70;91.90;;;;;;5076339;28;20530;-62
2023/11/02 12:02:54;;;;;;;1.30;0.87;;;14.70;91.90;;;;;;5078568;28;20551;-62
2023/11/02 12:05:56;;;;;;;1.40;1.10;;;14.70;91.90;;;;;;5076587;28;20434;-62
2023/11/02 12:08:26;;;;;;;1.43;0.87;;;14.70;91.90;;;;;;5076521;28;20443;-61
2023/11/02 12:10:55;;;;;;;1.10;0.77;;;14.70;91.80;;;;;;5077338;28;20482;-62
2023/11/02 12:13:22;;;;;;;1.70;0.80;;;14.60;91.70;;;;;;5080240;28;20988;-63
2023/11/02 12:15:54;;;;;;;1.10;0.83;;;14.50;91.70;;;;;;5079078;28;20436;-61
2023/11/02 12:18:24;;;;;;;1.30;0.90;;;14.50;91.90;;;;;;5078503;28;20443;-62
2023/11/02 12:20:50;;;;;;;1.70;1.20;;;14.40;92.00;;;;;;5077790;28;20492;-62
2023/11/02 12:23:20;;;;;;;1.00;0.70;;;14.40;92.20;;;;;;5077212;28;20466;-63
2023/11/02 12:25:52;;;;;;;1.73;1.00;;;14.30;92.20;;;;;;5075816;28;20447;-61
2023/11/02 12:28:18;;;;;;;1.60;1.23;;;14.30;92.30;;;;;;5075753;28;20481;-61
2023/11/02 12:30:45;;;;;;;1.27;0.90;;;14.40;92.50;;;;;;5077762;28;20439;-62
2023/11/02 12:33:20;;;;;;;1.60;1.13;;;14.40;92.60;;;;;;5080167;28;20481;-63
2023/11/02 12:35:54;;;;;;;1.07;0.73;;;14.40;92.70;;;;;;5079228;28;20423;-61
2023/11/02 12:38:43;;;;;;;1.70;1.20;;;14.50;92.80;;;;;;5080224;28;20431;-62
2023/11/02 12:41:12;;;;;;;1.80;0.70;;;14.50;92.90;;;;;;5082184;28;20462;-62
2023/11/02 12:43:40;;;;;;;1.00;0.70;;;14.50;92.90;;;;;;5079853;28;20530;-62
2023/11/02 12:46:08;;;;;;;1.00;0.90;;;14.50;93.00;;;;;;5079764;28;20469;-62
2023/11/02 12:48:37;;;;;;;1.97;1.20;;;14.50;93.20;;;;;;5079616;28;20447;-62
2023/11/02 12:51:18;;;;;;;1.67;1.00;;;14.50;93.20;;;;;;5079958;28;20825;-61
2023/11/02 12:53:48;;;;;;;1.73;0.90;;;14.50;93.20;;;;;;5078835;28;21000;-61
2023/11/02 12:56:22;;;;;;;1.80;1.20;;;14.50;93.10;;;;;;5080322;28;20449;-62
2023/11/02 12:58:58;;;;;;;2.63;1.53;;;14.50;93.10;;;;;;5080597;28;20434;-63
2023/11/02 13:01:47;;;;;;;1.80;1.20;;;14.50;93.00;;;;;;5079663;28;20431;-62
2023/11/02 13:04:14;;;;;;;3.30;1.60;;;14.60;93.10;;;;;;5079236;28;20426;-63
2023/11/02 13:06:42;;;;;;;1.80;1.10;;;14.60;93.20;;;;;;5078991;28;20936;-62
2023/11/02 13:09:12;;;;;;;1.93;0.97;;;14.60;93.20;;;;;;5080903;28;20451;-62
2023/11/02 13:11:41;;;;;;;3.73;1.20;;;14.50;93.20;;;;;;5077843;28;20475;-61